createdAt,value
2018-05-18T00:00:34.567Z,56.50
2018-05-18T00:05:38.595Z,57.20
2018-05-18T00:10:41.859Z,56.60
2018-05-18T00:15:46.362Z,56.50
2018-05-18T00:20:51.060Z,56.20
2018-05-18T00:25:56.092Z,56.00
2018-05-18T00:30:59.555Z,55.90
2018-05-18T00:36:03.583Z,55.90
2018-05-18T00:41:06.836Z,55.90
2018-05-18T00:46:10.087Z,55.70
2018-05-18T00:51:14.111Z,56.00
2018-05-18T00:56:17.371Z,55.90
2018-05-18T01:01:20.631Z,55.90
2018-05-18T01:06:24.659Z,56.70
2018-05-18T01:11:27.927Z,56.60
2018-05-18T01:16:31.182Z,56.20
2018-05-18T01:21:35.200Z,56.10
2018-05-18T01:26:38.458Z,56.10
2018-05-18T01:31:41.735Z,55.80
2018-05-18T01:36:44.995Z,55.90
2018-05-18T01:41:48.259Z,56.40
2018-05-18T01:46:51.519Z,57.30
2018-05-18T01:51:54.779Z,57.40
2018-05-18T01:56:58.792Z,57.50
2018-05-18T02:02:02.067Z,57.20
2018-05-18T02:07:05.327Z,57.50
2018-05-18T02:12:08.600Z,57.70
2018-05-18T02:17:12.640Z,57.40
2018-05-18T02:22:15.904Z,57.30
2018-05-18T02:27:19.163Z,57.40
2018-05-18T02:32:22.449Z,56.70
2018-05-18T02:37:25.688Z,56.90
2018-05-18T02:42:28.951Z,56.20
2018-05-18T02:47:36.331Z,56.30
2018-05-18T02:52:39.587Z,57.30
2018-05-18T02:57:43.611Z,56.90
2018-05-18T03:02:47.647Z,56.60
2018-05-18T03:07:50.971Z,56.60
2018-05-18T03:12:54.263Z,56.70
2018-05-18T03:17:57.634Z,56.40
2018-05-18T03:23:00.910Z,56.40
2018-05-18T03:28:04.179Z,56.20
2018-05-18T03:33:08.220Z,55.70
2018-05-18T03:38:11.475Z,55.60
2018-05-18T03:43:14.726Z,56.00
2018-05-18T03:48:18.755Z,56.50
2018-05-18T03:53:22.776Z,56.60
2018-05-18T03:58:26.802Z,56.90
2018-05-18T04:03:42.686Z,57.40
2018-05-18T04:08:52.692Z,57.30
2018-05-18T04:13:56.063Z,56.70
2018-05-18T04:18:59.320Z,56.30
2018-05-18T04:24:03.384Z,56.00
2018-05-18T04:29:06.638Z,56.40
2018-05-18T04:34:09.912Z,57.00
2018-05-18T04:39:13.171Z,56.90
2018-05-18T04:44:16.439Z,56.90
2018-05-18T04:49:19.687Z,56.50
2018-05-18T04:54:23.691Z,55.80
2018-05-18T04:59:26.940Z,55.20
2018-05-18T05:04:30.188Z,55.00
2018-05-18T05:09:33.439Z,55.20
2018-05-18T05:14:36.711Z,55.80
2018-05-18T05:19:40.733Z,55.40
2018-05-18T05:24:44.754Z,55.00
2018-05-18T05:29:48.011Z,55.00
2018-05-18T05:34:51.276Z,54.60
2018-05-18T05:39:55.285Z,54.60
2018-05-18T05:44:58.540Z,53.90
2018-05-18T05:50:01.812Z,54.20
2018-05-18T05:55:05.069Z,54.00
2018-05-18T06:00:08.328Z,54.20
2018-05-18T06:05:11.590Z,53.00
2018-05-18T06:10:14.838Z,52.90
2018-05-18T06:15:18.160Z,51.90
2018-05-18T06:20:22.183Z,50.30
2018-05-18T06:25:25.459Z,50.30
2018-05-18T06:30:28.740Z,50.20
2018-05-18T06:35:32.012Z,49.80
2018-05-18T06:40:35.251Z,49.40
2018-05-18T06:45:38.512Z,49.00
2018-05-18T06:50:41.787Z,48.20
2018-05-18T06:55:45.040Z,46.80
2018-05-18T07:00:49.062Z,47.00
2018-05-18T07:05:52.389Z,47.60
2018-05-18T07:10:55.581Z,48.10
2018-05-18T07:15:59.603Z,48.80
2018-05-18T07:21:02.858Z,48.80
2018-05-18T07:26:06.120Z,49.00
2018-05-18T07:31:10.160Z,49.00
2018-05-18T07:36:13.525Z,49.00
2018-05-18T07:41:16.707Z,48.20
2018-05-18T07:46:20.505Z,46.90
2018-05-18T07:51:23.771Z,46.30
2018-05-18T07:56:27.032Z,44.40
2018-05-18T08:01:30.314Z,45.50
2018-05-18T08:06:33.835Z,45.30
2018-05-18T08:11:37.865Z,43.60
2018-05-18T08:16:41.131Z,43.60
2018-05-18T08:21:44.400Z,43.90
2018-05-18T08:32:24.362Z,41.20
2018-05-18T08:37:27.656Z,39.60
2018-05-18T08:42:30.908Z,39.00
2018-05-18T08:47:34.242Z,40.60
2018-05-18T08:52:37.504Z,38.80
2018-05-18T08:57:41.544Z,39.30
2018-05-18T09:02:44.830Z,39.20
2018-05-18T09:07:48.107Z,38.10
2018-05-18T09:12:52.148Z,38.00
2018-05-18T09:17:55.431Z,37.90
2018-05-18T09:22:58.729Z,39.30
2018-05-18T09:28:01.991Z,38.40
2018-05-18T09:33:05.280Z,39.00
2018-05-18T09:38:08.539Z,37.30
2018-05-18T09:43:11.791Z,36.30
2018-05-18T09:48:15.040Z,38.00
2018-05-18T09:53:19.052Z,40.80
2018-05-18T09:58:22.308Z,40.80
2018-05-18T10:03:25.553Z,40.60
2018-05-18T10:08:28.798Z,38.90
2018-05-18T10:13:32.052Z,38.00
2018-05-18T10:18:35.334Z,37.50
2018-05-18T10:23:44.160Z,37.00
2018-05-18T10:28:47.433Z,37.10
2018-05-18T10:33:50.692Z,33.80
2018-05-18T10:38:53.940Z,33.60
2018-05-18T10:43:57.191Z,34.00
2018-05-18T10:49:00.447Z,33.60
2018-05-18T10:54:03.711Z,33.70
2018-05-18T10:59:06.962Z,33.50
2018-05-18T11:04:11.118Z,32.70
2018-05-18T11:09:14.372Z,30.60
2018-05-18T11:14:17.707Z,31.30
2018-05-18T11:19:21.659Z,31.80
2018-05-18T11:24:24.917Z,31.70
2018-05-18T11:29:28.175Z,33.20
2018-05-18T11:34:31.433Z,32.10
2018-05-18T11:39:35.481Z,29.80
2018-05-18T11:44:38.746Z,29.70
2018-05-18T11:49:42.757Z,29.80
2018-05-18T11:54:46.098Z,29.70
2018-05-18T11:59:49.260Z,29.10
2018-05-18T12:04:52.538Z,29.10
2018-05-18T12:09:55.803Z,29.40
2018-05-18T12:14:59.114Z,29.00
2018-05-18T12:20:02.371Z,29.20
2018-05-18T12:25:05.624Z,29.40
2018-05-18T12:30:08.878Z,28.60
2018-05-18T12:35:12.131Z,28.40
2018-05-18T12:40:15.404Z,28.20
2018-05-18T12:45:18.659Z,28.50
2018-05-18T12:50:21.911Z,29.10
2018-05-18T12:55:25.164Z,28.60
2018-05-18T13:00:29.186Z,27.70
2018-05-18T13:05:33.199Z,28.00
2018-05-18T13:10:36.447Z,27.90
2018-05-18T13:15:39.695Z,27.30
2018-05-18T13:20:43.212Z,26.20
2018-05-18T13:25:46.478Z,26.30
2018-05-18T13:30:49.727Z,26.20
2018-05-18T13:35:52.984Z,26.60
2018-05-18T13:40:56.222Z,26.50
2018-05-18T13:45:59.500Z,27.90
2018-05-18T13:51:02.756Z,27.20
2018-05-18T13:56:06.004Z,26.90
2018-05-18T14:01:09.246Z,28.40
2018-05-18T14:06:12.506Z,27.30
2018-05-18T14:11:15.762Z,26.40
2018-05-18T14:16:19.014Z,27.40
2018-05-18T14:21:22.322Z,27.60
2018-05-18T14:26:25.617Z,28.00
2018-05-18T14:31:28.822Z,26.70
2018-05-18T14:36:32.080Z,27.30
2018-05-18T14:41:35.338Z,27.40
2018-05-18T14:46:38.592Z,28.90
2018-05-18T14:51:41.868Z,29.40
2018-05-18T14:56:45.143Z,29.20
2018-05-18T15:01:49.042Z,29.40
2018-05-18T15:06:52.312Z,29.50
2018-05-18T15:11:56.337Z,32.10
2018-05-18T15:16:59.681Z,31.50
2018-05-18T15:22:03.058Z,31.90
2018-05-18T15:27:07.095Z,32.60
2018-05-18T15:32:10.357Z,32.20
2018-05-18T15:37:13.596Z,32.40
2018-05-18T15:42:17.819Z,33.50
2018-05-18T15:47:21.071Z,34.30
2018-05-18T15:52:32.547Z,35.80
2018-05-18T15:57:36.558Z,36.70
2018-05-18T16:02:39.824Z,36.60
2018-05-18T16:07:43.073Z,36.90
2018-05-18T16:12:46.374Z,35.30
2018-05-18T16:17:49.564Z,36.50
2018-05-18T16:22:52.835Z,36.00
2018-05-18T16:27:56.137Z,35.90
2018-05-18T16:32:59.342Z,36.90
2018-05-18T16:38:02.596Z,37.50
2018-05-18T16:43:05.859Z,37.80
2018-05-18T16:48:09.122Z,37.60
2018-05-18T16:53:13.903Z,38.20
2018-05-18T16:58:17.928Z,38.40
2018-05-18T17:03:21.170Z,38.40
2018-05-18T17:08:24.419Z,38.30
2018-05-18T17:13:27.679Z,38.50
2018-05-18T17:18:30.968Z,38.90
2018-05-18T17:23:34.790Z,38.90
2018-05-18T17:28:38.163Z,39.00
2018-05-18T17:33:41.424Z,39.40
2018-05-18T17:38:44.685Z,40.00
2018-05-18T17:43:49.768Z,40.70
2018-05-18T17:48:54.911Z,41.00
2018-05-18T17:53:58.136Z,42.40
2018-05-18T17:59:01.387Z,42.10
2018-05-18T18:04:04.632Z,41.60
2018-05-18T18:09:07.891Z,42.00
2018-05-18T18:14:11.202Z,42.00
2018-05-18T18:19:15.155Z,43.30
2018-05-18T18:24:18.427Z,42.60
2018-05-18T18:29:21.683Z,42.80
2018-05-18T18:34:27.433Z,43.60
2018-05-18T18:39:30.651Z,43.60
2018-05-18T18:44:34.672Z,44.20
2018-05-18T18:49:37.948Z,44.10
2018-05-18T18:54:41.175Z,44.50
2018-05-18T18:59:44.430Z,44.60
2018-05-18T19:04:47.691Z,45.20
2018-05-18T19:09:51.065Z,45.30
2018-05-18T19:14:54.310Z,45.80
2018-05-18T19:19:57.577Z,45.90
2018-05-18T19:25:00.883Z,46.50
2018-05-18T19:30:04.243Z,46.60
2018-05-18T19:35:07.499Z,47.30
2018-05-18T19:40:10.877Z,47.50
2018-05-18T19:45:14.175Z,47.60
2018-05-18T19:50:18.199Z,48.00
2018-05-18T19:55:22.227Z,48.30
2018-05-18T20:00:26.254Z,48.90
2018-05-18T20:05:29.525Z,48.90
2018-05-18T20:10:32.799Z,49.30
2018-05-18T20:15:36.058Z,49.50
2018-05-18T20:20:39.302Z,50.00
2018-05-18T20:25:42.712Z,50.10
2018-05-18T20:30:46.739Z,50.40
2018-05-18T20:35:49.995Z,50.30
2018-05-18T20:40:53.263Z,50.90
2018-05-18T20:45:57.282Z,50.70
2018-05-18T20:51:00.570Z,50.80
2018-05-18T20:56:04.613Z,52.50
2018-05-18T21:01:08.633Z,52.70
2018-05-18T21:06:12.647Z,53.00
2018-05-18T21:11:16.678Z,52.80
2018-05-18T21:16:19.957Z,52.80
2018-05-18T21:21:23.211Z,52.80
2018-05-18T21:26:26.480Z,53.60
2018-05-18T21:31:30.654Z,53.40
2018-05-18T21:36:35.253Z,53.50
2018-05-18T21:41:38.494Z,53.50
2018-05-18T21:46:42.504Z,54.90
2018-05-18T21:51:45.778Z,54.80
2018-05-18T21:56:49.040Z,54.40
2018-05-18T22:01:52.310Z,54.30
2018-05-18T22:06:55.573Z,53.90
2018-05-18T22:11:58.852Z,53.80
2018-05-18T22:17:02.098Z,53.70
2018-05-18T22:22:05.372Z,53.70
2018-05-18T22:27:08.876Z,53.40
2018-05-18T22:32:12.946Z,53.60
2018-05-18T22:37:16.254Z,53.60
2018-05-18T22:42:19.493Z,54.00
2018-05-18T22:47:22.771Z,54.00
2018-05-18T22:52:26.043Z,57.00
2018-05-18T22:57:30.074Z,58.90
2018-05-18T23:02:33.330Z,58.80
2018-05-18T23:07:37.369Z,56.00
2018-05-18T23:12:40.624Z,55.90
2018-05-18T23:17:43.897Z,55.60
2018-05-18T23:22:47.162Z,56.50
2018-05-18T23:27:50.547Z,56.50
2018-05-18T23:32:53.878Z,58.60
2018-05-18T23:37:57.316Z,58.60
2018-05-18T23:43:00.582Z,57.50
2018-05-18T23:48:04.595Z,57.50
2018-05-18T23:53:07.850Z,57.40
2018-05-18T23:58:16.166Z,56.20
